createdAt,value
2022-12-08T00:02:32.765Z,100311.13
2022-12-08T00:05:57.066Z,100310.41
2022-12-08T00:09:18.734Z,100305.31
2022-12-08T00:12:24.460Z,100314.87
2022-12-08T00:15:27.243Z,100316.41
2022-12-08T00:18:30.291Z,100307.09
2022-12-08T00:21:36.138Z,100307.91
2022-12-08T00:24:40.025Z,100299.31
2022-12-08T00:27:42.825Z,100310.63
2022-12-08T00:30:45.742Z,100301.91
2022-12-08T00:33:48.477Z,100298.59
2022-12-08T00:36:51.207Z,100305.44
2022-12-08T00:39:54.077Z,100307.19
2022-12-08T00:42:57.467Z,100299.41
2022-12-08T00:46:00.563Z,100300.47
2022-12-08T00:49:04.352Z,100306.47
2022-12-08T00:52:07.680Z,100303.88
2022-12-08T00:55:10.457Z,100300.25
2022-12-08T00:58:13.148Z,100305.22
2022-12-08T01:01:16.602Z,100299.41
2022-12-08T01:04:20.185Z,100304.50
2022-12-08T01:07:22.872Z,100295.78
2022-12-08T01:10:28.681Z,100294.63
2022-12-08T01:13:31.374Z,100297.13
2022-12-08T01:16:36.513Z,100302.91
2022-12-08T01:19:39.319Z,100301.25
2022-12-08T01:22:42.386Z,100306.34
2022-12-08T01:25:45.046Z,100302.69
2022-12-08T01:28:48.225Z,100300.00
2022-12-08T01:31:51.059Z,100305.41
2022-12-08T01:34:53.788Z,100310.03
2022-12-08T01:37:56.553Z,100309.94
2022-12-08T01:40:59.423Z,100304.84
2022-12-08T01:44:25.310Z,100295.41
2022-12-08T01:47:41.427Z,100292.09
2022-12-08T01:50:44.549Z,100285.16
2022-12-08T01:53:48.040Z,100291.28
2022-12-08T01:56:59.424Z,100284.31
2022-12-08T02:00:12.074Z,100276.44
2022-12-08T02:03:25.937Z,100282.34
2022-12-08T02:06:30.903Z,100279.03
2022-12-08T02:09:33.947Z,100280.78
2022-12-08T02:12:36.665Z,100273.84
2022-12-08T02:15:56.888Z,100271.03
2022-12-08T02:19:30.412Z,100272.78
2022-12-08T02:22:45.103Z,100262.62
2022-12-08T02:26:11.013Z,100264.72
2022-12-08T02:29:37.363Z,100273.12
2022-12-08T02:33:13.204Z,100263.34
2022-12-08T02:36:37.735Z,100258.88
2022-12-08T02:39:43.653Z,100248.62
2022-12-08T02:42:56.145Z,100253.91
2022-12-08T02:46:06.041Z,100242.72
2022-12-08T02:49:08.916Z,100249.66
2022-12-08T02:52:14.869Z,100242.59
2022-12-08T02:55:49.867Z,100239.28
2022-12-08T02:59:26.748Z,100238.69
2022-12-08T03:02:35.870Z,100237.84
2022-12-08T03:05:44.875Z,100236.19
2022-12-08T03:09:10.731Z,100230.91
2022-12-08T03:12:26.755Z,100230.78
2022-12-08T03:15:32.133Z,100232.78
2022-12-08T03:18:38.191Z,100233.37
2022-12-08T03:21:42.554Z,100230.56
2022-12-08T03:24:45.882Z,100221.75
2022-12-08T03:27:49.087Z,100226.44
2022-12-08T03:30:54.535Z,100224.66
2022-12-08T03:33:59.201Z,100206.06
2022-12-08T03:37:02.808Z,100210.31
2022-12-08T03:40:13.241Z,100203.03
2022-12-08T03:43:15.939Z,100204.06
2022-12-08T03:49:22.300Z,100204.31
2022-12-08T03:52:31.094Z,100201.47
2022-12-08T03:55:36.718Z,100206.56
2022-12-08T03:58:39.500Z,100193.31
2022-12-08T04:01:42.319Z,100204.06
2022-12-08T04:04:45.128Z,100203.13
2022-12-08T04:07:47.908Z,100210.09
2022-12-08T04:10:50.646Z,100202.31
2022-12-08T04:13:55.265Z,100206.56
2022-12-08T04:16:58.027Z,100202.81
2022-12-08T04:20:07.649Z,100202.09
2022-12-08T04:23:12.237Z,100195.97
2022-12-08T04:26:15.977Z,100196.19
2022-12-08T04:29:18.971Z,100195.25
2022-12-08T04:32:24.580Z,100202.19
2022-12-08T04:35:27.868Z,100196.19
2022-12-08T04:38:30.791Z,100196.28
2022-12-08T04:41:35.245Z,100192.87
2022-12-08T04:44:37.899Z,100200.53
2022-12-08T04:47:40.906Z,100199.59
2022-12-08T04:50:45.408Z,100200.97
2022-12-08T04:53:48.385Z,100193.16
2022-12-08T04:56:51.151Z,100191.41
2022-12-08T04:59:54.135Z,100181.84
2022-12-08T05:02:56.883Z,100179.03
2022-12-08T05:06:00.938Z,100179.75
2022-12-08T05:09:06.822Z,100183.50
2022-12-08T05:12:09.553Z,100185.28
2022-12-08T05:15:12.268Z,100179.16
2022-12-08T05:18:15.972Z,100174.25
2022-12-08T05:21:18.721Z,100176.66
2022-12-08T05:24:21.460Z,100179.16
2022-12-08T05:27:24.183Z,100186.81
2022-12-08T05:30:27.048Z,100176.44
2022-12-08T05:33:29.647Z,100176.09
2022-12-08T05:36:32.290Z,100177.03
2022-12-08T05:39:35.487Z,100166.06
2022-12-08T05:42:38.082Z,100165.13
2022-12-08T05:45:40.828Z,100171.75
2022-12-08T05:48:43.819Z,100161.25
2022-12-08T05:51:46.816Z,100162.19
2022-12-08T05:54:49.441Z,100165.59
2022-12-08T05:57:52.104Z,100162.78
2022-12-08T06:00:55.378Z,100160.91
2022-12-08T06:03:59.482Z,100165.87
2022-12-08T06:07:02.222Z,100162.31
2022-12-08T06:10:08.727Z,100161.38
2022-12-08T06:13:11.725Z,100154.53
2022-12-08T06:16:14.427Z,100159.28
2022-12-08T06:19:17.091Z,100157.50
2022-12-08T06:22:19.786Z,100163.41
2022-12-08T06:25:23.214Z,100165.87
2022-12-08T06:28:25.989Z,100163.19
2022-12-08T06:31:28.910Z,100163.28
2022-12-08T06:34:31.842Z,100158.81
2022-12-08T06:37:34.709Z,100168.84
2022-12-08T06:40:37.481Z,100169.31
2022-12-08T06:43:41.127Z,100168.12
2022-12-08T06:46:43.849Z,100164.50
2022-12-08T06:49:46.892Z,100163.44
2022-12-08T06:53:02.670Z,100159.66
2022-12-08T06:56:07.856Z,100162.84
2022-12-08T06:59:10.764Z,100164.41
2022-12-08T07:02:13.477Z,100165.94
2022-12-08T07:05:16.280Z,100165.72
2022-12-08T07:08:19.984Z,100172.44
2022-12-08T07:11:22.985Z,100178.00
2022-12-08T07:14:27.283Z,100177.78
2022-12-08T07:17:30.022Z,100180.13
2022-12-08T07:20:32.747Z,100175.53
2022-12-08T07:23:35.682Z,100173.53
2022-12-08T07:26:38.401Z,100168.09
2022-12-08T07:29:41.300Z,100171.28
2022-12-08T07:32:44.066Z,100175.28
2022-12-08T07:35:58.445Z,100172.69
2022-12-08T07:39:02.126Z,100168.91
2022-12-08T07:42:04.863Z,100171.19
2022-12-08T07:45:08.279Z,100170.00
2022-12-08T07:48:11.448Z,100179.22
2022-12-08T07:51:15.762Z,100176.37
2022-12-08T07:54:19.577Z,100179.44
2022-12-08T07:57:22.251Z,100174.12
2022-12-08T08:00:25.189Z,100169.50
2022-12-08T08:03:27.884Z,100177.19
2022-12-08T08:06:34.642Z,100177.78
2022-12-08T08:09:37.548Z,100177.53
2022-12-08T08:12:40.368Z,100170.56
2022-12-08T08:15:43.314Z,100163.34
2022-12-08T08:18:50.944Z,100171.72
2022-12-08T08:21:55.237Z,100167.81
2022-12-08T08:24:57.892Z,100175.87
2022-12-08T08:28:00.658Z,100172.28
2022-12-08T08:31:03.607Z,100168.00
2022-12-08T08:34:06.739Z,100170.44
2022-12-08T08:37:09.600Z,100158.09
2022-12-08T08:40:15.780Z,100169.72
2022-12-08T08:43:34.457Z,100178.19
2022-12-08T08:46:40.961Z,100175.63
2022-12-08T08:49:47.151Z,100180.25
2022-12-08T08:52:50.618Z,100183.03
2022-12-08T08:55:53.293Z,100173.75
2022-12-08T08:58:56.061Z,100178.44
2022-12-08T09:01:58.889Z,100177.09
2022-12-08T09:05:01.907Z,100169.16
2022-12-08T09:08:04.925Z,100171.22
2022-12-08T09:11:08.334Z,100169.19
2022-12-08T09:14:17.724Z,100173.31
2022-12-08T09:17:23.541Z,100165.25
2022-12-08T09:20:29.127Z,100155.66
2022-12-08T09:23:35.345Z,100133.28
2022-12-08T09:26:38.603Z,100144.44
2022-12-08T09:29:42.219Z,100142.41
2022-12-08T09:32:44.840Z,100130.75
2022-12-08T09:35:47.977Z,100129.78
2022-12-08T09:38:53.801Z,100127.72
2022-12-08T09:42:04.803Z,100126.78
2022-12-08T09:45:15.144Z,100124.72
2022-12-08T09:48:26.780Z,100120.06
2022-12-08T09:51:38.681Z,100104.97
2022-12-08T09:54:41.341Z,100116.09
2022-12-08T09:57:45.765Z,100105.53
2022-12-08T10:00:48.489Z,100095.53
2022-12-08T10:03:52.518Z,100098.56
2022-12-08T10:07:05.787Z,100088.41
2022-12-08T10:10:33.976Z,100087.87
2022-12-08T10:14:13.934Z,100097.50
2022-12-08T10:17:27.326Z,100078.13
2022-12-08T10:20:42.244Z,100070.03
2022-12-08T10:23:48.513Z,100074.56
2022-12-08T10:26:51.435Z,100065.06
2022-12-08T10:29:57.176Z,100059.03
2022-12-08T10:33:00.467Z,100045.72
2022-12-08T10:36:05.073Z,100056.16
2022-12-08T10:39:29.898Z,100045.56
2022-12-08T10:42:42.180Z,100045.72
2022-12-08T10:45:45.504Z,100041.56
2022-12-08T10:48:52.365Z,100042.94
2022-12-08T10:51:55.208Z,100035.41
2022-12-08T10:55:00.940Z,100033.75
2022-12-08T10:58:03.732Z,100031.97
2022-12-08T11:01:11.746Z,100030.84
2022-12-08T11:04:18.446Z,100026.87
2022-12-08T11:07:22.233Z,100028.81
2022-12-08T11:10:35.036Z,100019.59
2022-12-08T11:13:40.878Z,100009.31
2022-12-08T11:16:43.787Z,100008.22
2022-12-08T11:19:56.720Z,100002.84
2022-12-08T11:22:59.649Z,99998.31
2022-12-08T11:26:07.808Z,99996.38
2022-12-08T11:29:13.085Z,99998.03
2022-12-08T11:32:16.822Z,99996.09
2022-12-08T11:35:27.206Z,99998.84
2022-12-08T11:38:30.722Z,99995.13
2022-12-08T11:41:40.351Z,99995.69
2022-12-08T11:44:49.739Z,99997.19
2022-12-08T11:48:02.662Z,99988.28
2022-12-08T11:51:17.296Z,99975.63
2022-12-08T11:54:24.637Z,99974.22
2022-12-08T11:57:27.745Z,99976.84
2022-12-08T12:00:30.575Z,99972.59
2022-12-08T12:03:47.117Z,99972.72
2022-12-08T12:07:10.761Z,99968.47
2022-12-08T12:10:38.519Z,99961.75
2022-12-08T12:14:10.443Z,99966.69
2022-12-08T12:17:34.914Z,99963.94
2022-12-08T12:20:51.077Z,99963.78
2022-12-08T12:23:53.829Z,99963.94
2022-12-08T12:26:58.576Z,99964.91
2022-12-08T12:30:04.341Z,99952.00
2022-12-08T12:33:13.775Z,99957.06
2022-12-08T12:36:17.395Z,99940.31
2022-12-08T12:39:23.850Z,99945.66
2022-12-08T12:42:42.766Z,99952.53
2022-12-08T12:45:46.874Z,99943.88
2022-12-08T12:48:53.864Z,99948.28
2022-12-08T12:51:56.776Z,99934.53
2022-12-08T12:54:59.506Z,99935.34
2022-12-08T12:58:13.591Z,99928.50
2022-12-08T13:01:22.397Z,99933.44
2022-12-08T13:04:34.781Z,99925.59
2022-12-08T13:07:57.091Z,99935.91
2022-12-08T13:11:10.107Z,99914.31
2022-12-08T13:14:30.592Z,99920.22
2022-12-08T13:17:35.947Z,99920.22
2022-12-08T13:20:48.859Z,99924.78
2022-12-08T13:24:31.441Z,99920.38
2022-12-08T13:27:54.526Z,99922.31
2022-12-08T13:31:01.469Z,99908.44
2022-12-08T13:34:06.745Z,99917.22
2022-12-08T13:37:09.767Z,99920.81
2022-12-08T13:40:19.420Z,99923.28
2022-12-08T13:43:43.405Z,99916.66
2022-12-08T13:47:32.421Z,99907.56
2022-12-08T13:57:32.914Z,99914.25
2022-12-08T14:00:39.439Z,99912.88
2022-12-08T14:04:28.499Z,99914.16
2022-12-08T14:07:16.387Z,99914.44
2022-12-08T14:10:30.680Z,99910.47
2022-12-08T14:13:34.097Z,99905.38
2022-12-08T14:16:39.782Z,99908.28
2022-12-08T14:20:03.365Z,99902.00
2022-12-08T14:23:08.336Z,99900.50
2022-12-08T14:26:11.826Z,99903.22
2022-12-08T14:29:46.321Z,99895.69
2022-12-08T14:32:49.619Z,99892.53
2022-12-08T14:35:55.335Z,99887.75
2022-12-08T14:38:58.129Z,99873.88
2022-12-08T14:42:02.484Z,99886.91
2022-12-08T14:45:11.820Z,99882.94
2022-12-08T14:48:39.041Z,99883.91
2022-12-08T14:51:42.855Z,99886.13
2022-12-08T14:54:50.675Z,99893.13
2022-12-08T14:57:53.525Z,99890.00
2022-12-08T15:01:00.317Z,99888.47
2022-12-08T15:04:25.225Z,99887.94
2022-12-08T15:07:30.341Z,99888.09
2022-12-08T15:10:40.158Z,99884.78
2022-12-08T15:13:46.982Z,99887.53
2022-12-08T15:16:54.576Z,99885.63
2022-12-08T15:19:58.800Z,99890.00
2022-12-08T15:23:02.511Z,99885.75
2022-12-08T15:26:07.359Z,99884.94
2022-12-08T15:29:14.586Z,99893.72
2022-12-08T15:32:23.559Z,99893.72
2022-12-08T15:35:27.929Z,99907.47
2022-12-08T15:38:34.738Z,99903.19
2022-12-08T15:41:37.595Z,99905.00
2022-12-08T15:44:46.142Z,99905.94
2022-12-08T15:47:50.142Z,99900.72
2022-12-08T15:50:54.944Z,99905.28
2022-12-08T15:53:59.350Z,99904.59
2022-12-08T15:57:19.092Z,99901.44
2022-12-08T16:04:36.783Z,99911.28
2022-12-08T16:07:26.939Z,99903.88
2022-12-08T16:10:52.498Z,99897.31
2022-12-08T16:13:58.252Z,99901.69
2022-12-08T16:17:05.934Z,99902.81
2022-12-08T16:20:15.978Z,99907.19
2022-12-08T16:23:41.097Z,99899.38
2022-12-08T16:30:11.984Z,99905.00
2022-12-08T16:33:15.104Z,99901.56
2022-12-08T16:36:18.015Z,99904.19
2022-12-08T16:39:21.198Z,99905.84
2022-12-08T16:42:44.734Z,99908.56
2022-12-08T16:45:47.624Z,99907.75
2022-12-08T16:48:50.442Z,99908.03
2022-12-08T16:51:53.263Z,99910.78
2022-12-08T16:54:56.140Z,99904.88
2022-12-08T16:57:59.824Z,99901.59
2022-12-08T17:01:02.608Z,99894.59
2022-12-08T17:07:28.515Z,99894.72
2022-12-08T17:10:35.970Z,99898.31
2022-12-08T17:13:45.109Z,99898.44
2022-12-08T17:16:53.979Z,99902.81
2022-12-08T17:19:56.849Z,99908.03
2022-12-08T17:22:59.679Z,99902.81
2022-12-08T17:26:03.109Z,99900.50
2022-12-08T17:29:06.123Z,99897.88
2022-12-08T17:32:09.108Z,99898.03
2022-12-08T17:35:12.056Z,99902.41
2022-12-08T17:38:15.523Z,99892.00
2022-12-08T17:41:18.815Z,99892.13
2022-12-08T17:44:21.647Z,99885.41
2022-12-08T17:47:24.490Z,99884.44
2022-12-08T17:50:27.380Z,99884.44
2022-12-08T17:53:34.288Z,99881.84
2022-12-08T17:56:41.514Z,99873.19
2022-12-08T17:59:44.582Z,99876.63
2022-12-08T18:02:47.500Z,99885.41
2022-12-08T18:05:51.174Z,99875.81
2022-12-08T18:08:54.136Z,99874.84
2022-12-08T18:11:56.864Z,99878.28
2022-12-08T18:15:02.077Z,99874.56
2022-12-08T18:18:06.830Z,99873.75
2022-12-08T18:21:10.072Z,99882.25
2022-12-08T18:24:20.512Z,99883.06
2022-12-08T18:27:23.669Z,99876.91
2022-12-08T18:30:27.877Z,99876.22
2022-12-08T18:33:30.624Z,99877.84
2022-12-08T18:36:33.548Z,99871.53
2022-12-08T18:39:36.552Z,99873.47
2022-12-08T18:42:39.603Z,99870.03
2022-12-08T18:45:42.709Z,99867.44
2022-12-08T18:48:48.894Z,99861.41
2022-12-08T18:51:52.016Z,99865.78
2022-12-08T18:55:06.436Z,99864.97
2022-12-08T18:58:11.139Z,99865.94
2022-12-08T19:01:15.419Z,99861.13
2022-12-08T19:04:38.508Z,99859.06
2022-12-08T19:07:43.272Z,99851.25
2022-12-08T19:10:46.292Z,99855.63
2022-12-08T19:13:49.586Z,99853.84
2022-12-08T19:16:52.432Z,99856.47
2022-12-08T19:19:55.590Z,99858.38
2022-12-08T19:22:58.874Z,99866.19
2022-12-08T19:26:03.024Z,99861.94
2022-12-08T19:29:06.000Z,99865.38
2022-12-08T19:32:09.407Z,99865.38
2022-12-08T19:35:12.573Z,99870.59
2022-12-08T19:38:15.721Z,99866.34
2022-12-08T19:41:36.876Z,99875.53
2022-12-08T19:44:54.913Z,99867.03
2022-12-08T19:47:59.093Z,99860.03
2022-12-08T19:51:03.606Z,99858.09
2022-12-08T19:54:08.990Z,99854.53
2022-12-08T19:57:12.577Z,99855.50
2022-12-08T20:00:16.266Z,99847.81
2022-12-08T20:03:20.890Z,99856.47
2022-12-08T20:06:24.023Z,99843.44
2022-12-08T20:09:28.194Z,99849.59
2022-12-08T20:12:31.518Z,99849.59
2022-12-08T20:15:34.559Z,99845.34
2022-12-08T20:18:38.276Z,99860.03
2022-12-08T20:21:41.477Z,99857.41
2022-12-08T20:24:44.236Z,99864.28
2022-12-08T20:27:47.362Z,99866.88
2022-12-08T20:30:50.458Z,99860.72
2022-12-08T20:33:53.704Z,99855.50
2022-12-08T20:36:56.532Z,99863.31
2022-12-08T20:40:00.239Z,99855.63
2022-12-08T20:43:04.507Z,99860.72
2022-12-08T20:46:09.990Z,99860.84
2022-12-08T20:49:13.681Z,99869.63
2022-12-08T20:52:16.824Z,99863.47
2022-12-08T20:55:19.640Z,99865.25
2022-12-08T20:58:23.210Z,99875.66
2022-12-08T21:01:29.419Z,99861.81
2022-12-08T21:04:32.439Z,99867.84
2022-12-08T21:07:35.729Z,99864.41
2022-12-08T21:10:43.976Z,99869.63
2022-12-08T21:13:47.584Z,99874.84
2022-12-08T21:16:51.099Z,99869.63
2022-12-08T21:19:57.170Z,99870.59
2022-12-08T21:23:00.006Z,99852.06
2022-12-08T21:26:03.212Z,99862.78
2022-12-08T21:29:09.421Z,99865.38
2022-12-08T21:32:12.312Z,99859.50
2022-12-08T21:35:16.064Z,99861.28
2022-12-08T21:38:19.774Z,99860.31
2022-12-08T21:41:44.050Z,99858.66
2022-12-08T21:44:47.343Z,99848.37
2022-12-08T21:47:50.666Z,99837.09
2022-12-08T21:50:54.397Z,99844.09
2022-12-08T21:53:57.640Z,99843.16
2022-12-08T21:57:01.394Z,99840.66
2022-12-08T22:00:06.425Z,99837.25
2022-12-08T22:03:16.001Z,99836.41
2022-12-08T22:06:19.363Z,99838.19
2022-12-08T22:09:22.494Z,99834.78
2022-12-08T22:12:25.757Z,99845.19
2022-12-08T22:15:30.071Z,99838.34
2022-12-08T22:18:34.091Z,99839.16
2022-12-08T22:21:38.541Z,99836.56
2022-12-08T22:24:41.689Z,99837.66
2022-12-08T22:27:51.284Z,99824.63
2022-12-08T22:30:54.943Z,99820.25
2022-12-08T22:33:59.738Z,99815.84
2022-12-08T22:37:02.614Z,99824.47
2022-12-08T22:40:06.939Z,99826.28
2022-12-08T22:43:13.535Z,99830.53
2022-12-08T22:46:24.258Z,99831.47
2022-12-08T22:49:27.696Z,99839.97
2022-12-08T22:52:30.512Z,99839.16
2022-12-08T22:55:33.849Z,99836.41
2022-12-08T22:58:37.351Z,99838.88
2022-12-08T23:01:40.382Z,99829.28
2022-12-08T23:04:43.510Z,99828.34
2022-12-08T23:07:46.477Z,99830.12
2022-12-08T23:10:51.012Z,99829.28
2022-12-08T23:13:53.789Z,99834.37
2022-12-08T23:16:56.741Z,99825.03
2022-12-08T23:19:59.497Z,99828.47
2022-12-08T23:23:03.281Z,99838.88
2022-12-08T23:26:15.767Z,99837.09
2022-12-08T23:29:18.477Z,99824.91
2022-12-08T23:32:21.728Z,99823.13
2022-12-08T23:35:24.533Z,99809.97
2022-12-08T23:38:27.409Z,99805.72
2022-12-08T23:41:31.411Z,99813.53
2022-12-08T23:44:34.439Z,99809.81
2022-12-08T23:47:37.615Z,99808.88
2022-12-08T23:50:40.550Z,99806.25
2022-12-08T23:53:44.512Z,99813.13
2022-12-08T23:56:47.299Z,99840.81
2022-12-08T23:59:50.226Z,99850.28
